Time;durP1;ratioP1;P1;durP2;ratioP2;P2;SDS_P1;SDS_P2;PMS_P1;PMS_P2;Temp;Humidity;BMP_temperature;BMP_pressure;BME280_temperature;BME280_humidity;BME280_pressure;Samples;Min_cycle;Max_cycle;Signal;HPM_P1;HPM_P2
2021/12/25 00:00:10;;;;;;;11.85;8.35;;;7.10;99.90;;;;;;5030789;28;20049;-64
2021/12/25 00:02:39;;;;;;;14.88;8.98;;;7.10;99.90;;;;;;5030269;28;20042;-65
2021/12/25 00:05:07;;;;;;;11.80;8.27;;;7.10;99.90;;;;;;5031034;28;20049;-64
2021/12/25 00:07:34;;;;;;;13.25;7.72;;;7.10;99.90;;;;;;5032521;28;20048;-65
2021/12/25 00:10:03;;;;;;;11.13;7.50;;;7.10;99.90;;;;;;5031699;28;20045;-65
2021/12/25 00:12:31;;;;;;;12.63;8.07;;;7.10;99.90;;;;;;5030034;28;20053;-65
2021/12/25 00:15:00;;;;;;;12.65;7.55;;;7.10;99.90;;;;;;5028157;28;20411;-64
2021/12/25 00:17:27;;;;;;;10.45;7.13;;;7.10;99.90;;;;;;5029234;28;20392;-65
2021/12/25 00:19:55;;;;;;;10.90;7.20;;;7.10;99.90;;;;;;5030071;28;20100;-65
2021/12/25 00:22:22;;;;;;;10.90;7.82;;;7.10;99.90;;;;;;5024084;28;20049;-65
2021/12/25 00:24:49;;;;;;;11.32;7.28;;;7.10;99.90;;;;;;5029426;28;20045;-65
2021/12/25 00:30:13;;;;;;;11.30;7.57;;;7.00;99.90;;;;;;5028244;28;20645;-65
2021/12/25 00:32:51;;;;;;;14.10;8.05;;;7.00;99.90;;;;;;5027871;28;20086;-65
2021/12/25 00:35:19;;;;;;;11.57;7.63;;;7.00;99.90;;;;;;5028846;28;20041;-64
2021/12/25 00:37:46;;;;;;;14.05;8.65;;;7.00;99.90;;;;;;5028532;28;20047;-64
2021/12/25 00:40:14;;;;;;;11.82;7.75;;;7.00;99.90;;;;;;5029419;28;20420;-65
2021/12/25 00:42:41;;;;;;;13.07;7.95;;;7.10;99.90;;;;;;5061622;28;20543;-65
2021/12/25 00:45:09;;;;;;;11.60;7.78;;;7.00;99.90;;;;;;5029251;28;20063;-65
2021/12/25 00:47:37;;;;;;;11.45;7.38;;;7.00;99.90;;;;;;5030871;28;20408;-64
2021/12/25 00:50:05;;;;;;;11.95;7.28;;;7.00;99.90;;;;;;5030910;28;20050;-65
2021/12/25 00:52:32;;;;;;;12.45;7.15;;;7.00;99.90;;;;;;5030868;28;20054;-65
2021/12/25 00:55:01;;;;;;;10.93;7.32;;;7.10;99.90;;;;;;5029144;28;20042;-64
2021/12/25 00:57:28;;;;;;;12.10;7.72;;;7.10;99.90;;;;;;5018632;28;20048;-64
2021/12/25 00:59:56;;;;;;;10.63;6.88;;;7.00;99.90;;;;;;5026913;28;20053;-65
2021/12/25 01:02:23;;;;;;;12.10;7.28;;;7.00;99.90;;;;;;5016714;28;20053;-65
2021/12/25 01:04:51;;;;;;;12.50;7.15;;;7.00;99.90;;;;;;5029099;28;20047;-65
2021/12/25 01:07:18;;;;;;;10.05;6.28;;;7.00;99.90;;;;;;5013471;28;20038;-65
2021/12/25 01:09:48;;;;;;;11.90;6.45;;;7.00;99.90;;;;;;5016360;28;20064;-65
2021/12/25 01:12:17;;;;;;;11.13;6.72;;;7.00;99.90;;;;;;5029273;28;20049;-65
2021/12/25 01:14:51;;;;;;;9.68;6.70;;;7.00;99.90;;;;;;5008987;28;20057;-64
2021/12/25 01:18:38;;;;;;;16.23;6.30;;;7.00;99.90;;;;;;5023462;28;20057;-65
2021/12/25 01:21:42;;;;;;;12.32;6.93;;;7.00;99.90;;;;;;5027104;28;20442;-65
2021/12/25 01:29:16;;;;;;;11.10;6.13;;;7.00;99.90;;;;;;5023555;28;20045;-65
2021/12/25 01:32:10;;;;;;;9.88;6.15;;;6.90;99.90;;;;;;5036027;28;20503;-65
2021/12/25 01:49:39;;;;;;;10.73;7.32;;;7.00;99.90;;;;;;4968627;28;20059;-65
2021/12/25 01:52:07;;;;;;;13.02;8.55;;;7.00;99.90;;;;;;4968159;28;20069;-64
2021/12/25 01:54:35;;;;;;;13.23;8.85;;;7.00;99.90;;;;;;4984130;28;20046;-65
2021/12/25 01:57:03;;;;;;;13.65;8.77;;;7.00;99.90;;;;;;4984216;28;20818;-65
2021/12/25 01:59:30;;;;;;;13.45;8.50;;;6.90;99.90;;;;;;4967931;28;20421;-65
2021/12/25 02:01:58;;;;;;;12.05;7.95;;;6.90;99.90;;;;;;4951978;28;20066;-65
2021/12/25 02:04:26;;;;;;;14.25;8.80;;;6.90;99.90;;;;;;4968224;28;20094;-65
2021/12/25 02:06:53;;;;;;;14.93;9.05;;;6.90;99.90;;;;;;4967726;28;20482;-65
2021/12/25 02:09:20;;;;;;;14.90;8.27;;;6.90;99.90;;;;;;4966339;28;20377;-64
2021/12/25 02:11:48;;;;;;;12.82;8.32;;;6.90;99.90;;;;;;4968112;28;20062;-64
2021/12/25 02:14:15;;;;;;;13.40;8.93;;;6.90;99.90;;;;;;4985092;28;20171;-64
2021/12/25 02:16:56;;;;;;;20.48;10.98;;;6.90;99.90;;;;;;5028866;28;20602;-64
2021/12/25 02:19:41;;;;;;;15.07;9.95;;;6.90;99.90;;;;;;5013800;28;20068;-65
2021/12/25 02:22:09;;;;;;;14.15;8.20;;;6.90;99.90;;;;;;5019050;28;20056;-64
2021/12/25 02:24:38;;;;;;;17.48;9.88;;;6.90;99.90;;;;;;5010956;28;20069;-64
2021/12/25 02:27:06;;;;;;;12.82;8.45;;;6.90;99.90;;;;;;5028899;28;20056;-64
2021/12/25 02:29:34;;;;;;;13.88;8.80;;;6.80;99.90;;;;;;5027531;28;20049;-65
2021/12/25 02:32:03;;;;;;;13.50;8.55;;;6.80;99.90;;;;;;5028102;28;20041;-64
2021/12/25 02:34:33;;;;;;;14.40;9.48;;;6.80;99.90;;;;;;5027650;28;20056;-64
2021/12/25 02:37:01;;;;;;;13.95;8.65;;;6.80;99.90;;;;;;5014873;28;20053;-65
2021/12/25 02:39:29;;;;;;;15.27;9.13;;;6.80;99.90;;;;;;5027690;28;20049;-65
2021/12/25 02:41:56;;;;;;;15.07;9.05;;;6.90;99.90;;;;;;5016986;28;20400;-64
2021/12/25 02:44:24;;;;;;;14.88;9.32;;;6.90;99.90;;;;;;5029088;28;20049;-64
2021/12/25 02:46:54;;;;;;;15.50;9.60;;;6.80;99.90;;;;;;5014702;28;20478;-64
2021/12/25 02:49:24;;;;;;;15.07;9.73;;;6.90;99.90;;;;;;5027448;28;20049;-64
2021/12/25 02:51:52;;;;;;;15.30;9.40;;;6.90;99.90;;;;;;5027593;28;20484;-64
2021/12/25 02:54:20;;;;;;;17.23;10.70;;;6.90;99.90;;;;;;5032048;28;20048;-65
2021/12/25 02:56:48;;;;;;;16.08;10.55;;;6.90;99.90;;;;;;5027564;28;20056;-65
2021/12/25 02:59:15;;;;;;;13.23;8.90;;;6.90;99.90;;;;;;5030589;28;20500;-65
2021/12/25 03:02:09;;;;;;;15.43;9.30;;;6.90;99.90;;;;;;5028810;28;20060;-65
2021/12/25 03:04:38;;;;;;;15.90;9.68;;;6.90;99.90;;;;;;5026936;28;20037;-64
2021/12/25 03:07:08;;;;;;;14.68;9.23;;;6.90;99.90;;;;;;5014817;28;20519;-65
2021/12/25 03:09:36;;;;;;;16.30;10.68;;;6.90;99.90;;;;;;5012651;28;20034;-64
2021/12/25 03:12:06;;;;;;;16.02;9.98;;;6.90;99.90;;;;;;5028811;28;20467;-65
2021/12/25 03:15:01;;;;;;;15.38;10.02;;;6.90;99.90;;;;;;5013337;28;20053;-65
2021/12/25 03:17:29;;;;;;;16.27;10.82;;;6.90;99.90;;;;;;5027005;28;20041;-64
2021/12/25 03:19:58;;;;;;;15.93;10.07;;;6.90;99.90;;;;;;5027365;28;20518;-65
2021/12/25 03:22:25;;;;;;;15.90;10.55;;;7.00;99.90;;;;;;5028609;28;20598;-64
2021/12/25 03:24:53;;;;;;;16.95;11.05;;;6.90;99.90;;;;;;5022987;28;20046;-64
2021/12/25 03:27:20;;;;;;;17.50;11.32;;;6.90;99.90;;;;;;5020129;28;20049;-64
2021/12/25 03:29:48;;;;;;;17.63;10.77;;;6.90;99.90;;;;;;5029108;28;20166;-64
2021/12/25 03:32:16;;;;;;;18.70;11.10;;;6.90;99.90;;;;;;5013364;28;20515;-64
2021/12/25 03:34:44;;;;;;;15.93;10.18;;;6.90;99.90;;;;;;5030348;28;20049;-64
2021/12/25 03:37:11;;;;;;;17.20;10.77;;;6.90;99.90;;;;;;5031496;28;20041;-65
2021/12/25 03:39:39;;;;;;;18.45;10.93;;;6.90;99.90;;;;;;5029954;28;20666;-65
2021/12/25 03:42:08;;;;;;;18.35;10.90;;;6.90;99.90;;;;;;5030151;28;20124;-64
2021/12/25 03:44:35;;;;;;;17.35;11.20;;;6.90;99.90;;;;;;5031334;28;20519;-65
2021/12/25 03:47:12;;;;;;;16.30;11.15;;;6.90;99.90;;;;;;5029755;28;20049;-65
2021/12/25 03:58:01;;;;;;;17.65;11.45;;;6.90;99.90;;;;;;5024978;28;20340;-65
2021/12/25 04:00:31;;;;;;;17.70;11.15;;;6.90;99.90;;;;;;5026793;28;20060;-65
2021/12/25 04:03:03;;;;;;;18.10;11.63;;;7.00;99.90;;;;;;5031114;28;20068;-65
2021/12/25 04:05:38;;;;;;;18.83;11.95;;;6.90;99.90;;;;;;5026073;28;20040;-65
2021/12/25 04:08:08;;;;;;;17.13;11.50;;;6.90;99.90;;;;;;5032006;28;20648;-65
2021/12/25 04:10:41;;;;;;;18.45;11.38;;;6.90;99.90;;;;;;5030545;28;20047;-65
2021/12/25 04:13:12;;;;;;;17.92;11.68;;;6.90;99.90;;;;;;5040154;28;20103;-63
2021/12/25 04:15:40;;;;;;;18.63;11.60;;;6.90;99.90;;;;;;5031654;28;20500;-65
2021/12/25 04:18:09;;;;;;;19.30;12.15;;;6.90;99.90;;;;;;5028905;28;20045;-64
2021/12/25 04:20:37;;;;;;;20.15;12.20;;;7.00;99.90;;;;;;5028331;28;20053;-64
2021/12/25 04:23:13;;;;;;;18.67;11.93;;;7.00;99.90;;;;;;5029692;28;20594;-65
2021/12/25 04:25:40;;;;;;;17.10;11.23;;;7.00;99.90;;;;;;5013419;28;20336;-64
2021/12/25 04:28:18;;;;;;;19.90;11.35;;;7.00;99.90;;;;;;5030968;28;20072;-65
2021/12/25 04:31:10;;;;;;;20.00;12.63;;;7.00;99.90;;;;;;5030085;28;20366;-65
2021/12/25 05:04:29;;;;;;;18.92;11.52;;;7.20;99.90;;;;;;5007924;28;20619;-64
2021/12/25 05:07:35;;;;;;;20.88;12.30;;;7.10;99.90;;;;;;5002575;28;20528;-64
2021/12/25 05:10:03;;;;;;;20.40;12.30;;;7.10;99.90;;;;;;4990835;28;20053;-64
2021/12/25 05:12:31;;;;;;;17.55;11.23;;;7.10;99.90;;;;;;4991405;28;20049;-64
2021/12/25 05:14:59;;;;;;;20.25;11.88;;;7.10;99.90;;;;;;5007300;28;20057;-64
2021/12/25 05:17:27;;;;;;;18.52;11.82;;;7.10;99.90;;;;;;5007412;28;20045;-64
2021/12/25 05:19:55;;;;;;;18.27;11.93;;;7.10;99.90;;;;;;5003234;28;20054;-64
2021/12/25 05:22:22;;;;;;;20.98;12.65;;;7.20;99.90;;;;;;4990517;28;20065;-65
2021/12/25 05:24:51;;;;;;;20.15;12.57;;;7.20;99.90;;;;;;4990792;28;20054;-64
2021/12/25 05:27:19;;;;;;;21.35;13.18;;;7.20;99.90;;;;;;5013451;28;20156;-64
2021/12/25 05:29:48;;;;;;;22.27;13.85;;;7.20;99.90;;;;;;5012036;28;20133;-64
2021/12/25 05:32:34;;;;;;;24.00;14.10;;;7.20;99.90;;;;;;5027633;28;20073;-64
2021/12/25 05:35:08;;;;;;;21.83;12.55;;;7.20;99.90;;;;;;5030135;28;20465;-64
2021/12/25 05:37:59;;;;;;;23.33;13.48;;;7.20;99.90;;;;;;5022705;28;20487;-64
2021/12/25 05:40:46;;;;;;;18.17;11.88;;;7.20;99.90;;;;;;5028542;28;20052;-64
2021/12/25 05:43:14;;;;;;;19.13;11.50;;;7.20;99.90;;;;;;5028983;28;20049;-64
2021/12/25 05:45:43;;;;;;;19.05;11.88;;;7.20;99.90;;;;;;5027762;28;20511;-64
2021/12/25 05:48:42;;;;;;;18.40;11.63;;;7.20;99.90;;;;;;5021772;28;20099;-64
2021/12/25 05:51:39;;;;;;;19.23;11.60;;;7.20;99.90;;;;;;5018724;28;20048;-64
2021/12/25 05:54:30;;;;;;;23.08;13.90;;;7.20;99.90;;;;;;5015783;28;20061;-64
2021/12/25 05:57:15;;;;;;;21.40;12.55;;;7.20;99.90;;;;;;5027794;28;20123;-64
2021/12/25 06:00:03;;;;;;;20.15;12.32;;;7.20;99.90;;;;;;5015543;28;20500;-64
2021/12/25 06:02:43;;;;;;;21.13;12.90;;;7.20;99.90;;;;;;5026245;28;20932;-64
2021/12/25 06:05:21;;;;;;;19.83;11.85;;;7.20;99.90;;;;;;5010533;28;20064;-64
2021/12/25 06:07:49;;;;;;;21.27;12.20;;;7.20;99.90;;;;;;5027812;28;20050;-64
2021/12/25 06:10:17;;;;;;;22.20;12.55;;;7.20;99.90;;;;;;5026989;28;20054;-64
2021/12/25 06:12:53;;;;;;;20.55;12.48;;;7.20;99.90;;;;;;5026867;28;20599;-64
2021/12/25 06:15:22;;;;;;;20.55;12.07;;;7.20;99.90;;;;;;5039951;28;20523;-64
2021/12/25 06:18:14;;;;;;;20.27;11.88;;;7.20;99.90;;;;;;5043955;28;20526;-64
2021/12/25 06:20:46;;;;;;;22.23;14.18;;;7.20;99.90;;;;;;5012370;28;20107;-64
2021/12/25 06:23:13;;;;;;;21.42;12.57;;;7.20;99.90;;;;;;5027482;28;20045;-64
2021/12/25 06:25:46;;;;;;;20.05;12.07;;;7.20;99.90;;;;;;5036130;28;20069;-64
2021/12/25 06:28:27;;;;;;;20.65;12.35;;;7.20;99.90;;;;;;5020324;28;20091;-65
2021/12/25 06:31:14;;;;;;;18.65;11.40;;;7.20;99.90;;;;;;5025677;28;20064;-65
2021/12/25 06:33:54;;;;;;;17.33;10.50;;;7.20;99.90;;;;;;5028509;28;20045;-64
2021/12/25 06:36:54;;;;;;;17.85;11.07;;;7.20;99.90;;;;;;5027765;28;20058;-65
2021/12/25 06:39:31;;;;;;;18.92;11.95;;;7.10;99.90;;;;;;4996386;28;20064;-64
2021/12/25 06:42:12;;;;;;;22.35;11.25;;;7.20;99.90;;;;;;5004833;28;20364;-64
2021/12/25 06:44:42;;;;;;;15.38;9.25;;;7.20;99.90;;;;;;4982271;28;20476;-64
2021/12/25 06:47:09;;;;;;;16.08;10.10;;;7.20;99.90;;;;;;5010053;28;20073;-64
2021/12/25 06:49:40;;;;;;;19.45;12.20;;;7.10;99.90;;;;;;5005017;28;20056;-65
2021/12/25 06:52:08;;;;;;;16.80;10.10;;;7.10;99.90;;;;;;5010762;28;20098;-64
2021/12/25 06:54:54;;;;;;;15.88;10.15;;;7.20;99.90;;;;;;5008554;28;20045;-63
2021/12/25 06:57:45;;;;;;;16.48;9.40;;;7.20;99.90;;;;;;5014678;28;20052;-64
2021/12/25 07:00:15;;;;;;;14.52;9.20;;;7.20;99.90;;;;;;5018664;28;20155;-64
2021/12/25 07:02:43;;;;;;;17.02;9.65;;;7.20;99.90;;;;;;4996209;28;20049;-65
2021/12/25 07:05:29;;;;;;;14.68;8.95;;;7.10;99.90;;;;;;4989484;28;20054;-64
2021/12/25 07:08:15;;;;;;;21.02;11.85;;;7.10;99.90;;;;;;5023177;28;20054;-64
2021/12/25 07:10:59;;;;;;;20.10;12.48;;;7.20;99.90;;;;;;5030972;28;20044;-66
2021/12/25 07:13:46;;;;;;;17.35;9.60;;;7.20;99.90;;;;;;5035351;28;20049;-65
2021/12/25 07:16:32;;;;;;;16.25;9.25;;;7.10;99.90;;;;;;5036534;28;20075;-64
2021/12/25 07:19:29;;;;;;;15.32;8.80;;;7.20;99.90;;;;;;5024326;28;20064;-65
2021/12/25 07:21:59;;;;;;;13.50;7.93;;;7.20;99.90;;;;;;5036779;28;20047;-65
2021/12/25 07:25:04;;;;;;;12.88;7.95;;;7.10;99.90;;;;;;5021510;28;20072;-65
2021/12/25 07:27:50;;;;;;;13.82;7.63;;;7.10;99.90;;;;;;5036332;28;20045;-65
2021/12/25 07:30:18;;;;;;;12.48;7.20;;;7.10;99.90;;;;;;5035386;28;20095;-66
2021/12/25 07:32:45;;;;;;;13.13;7.55;;;7.10;99.90;;;;;;5036941;28;20160;-66
2021/12/25 07:35:13;;;;;;;10.07;5.53;;;7.10;99.90;;;;;;5036858;28;20414;-65
2021/12/25 07:37:40;;;;;;;10.77;6.18;;;7.10;99.90;;;;;;5035514;28;20164;-65
2021/12/25 07:40:11;;;;;;;11.57;6.70;;;7.10;99.90;;;;;;5036750;28;20404;-65
2021/12/25 07:42:39;;;;;;;9.93;6.20;;;7.10;99.90;;;;;;5035853;28;20500;-64
2021/12/25 07:45:10;;;;;;;11.30;6.95;;;7.00;99.90;;;;;;5068369;28;20041;-66
2021/12/25 07:47:45;;;;;;;15.38;8.98;;;7.00;99.90;;;;;;5035933;28;20049;-65
2021/12/25 07:50:13;;;;;;;12.57;7.60;;;7.00;99.90;;;;;;5035612;28;20056;-65
2021/12/25 07:52:41;;;;;;;8.90;5.90;;;6.90;99.90;;;;;;5037812;28;20042;-66
2021/12/25 07:55:09;;;;;;;8.20;4.65;;;6.80;99.90;;;;;;5033720;28;20045;-66
2021/12/25 07:57:37;;;;;;;7.20;4.20;;;6.70;99.90;;;;;;5036932;28;20064;-65
2021/12/25 08:00:07;;;;;;;6.45;3.20;;;6.70;99.90;;;;;;5023790;28;20817;-65
2021/12/25 08:02:38;;;;;;;5.00;3.03;;;6.60;99.90;;;;;;5018827;28;20053;-65
2021/12/25 08:05:06;;;;;;;5.88;2.95;;;6.50;99.90;;;;;;5034437;28;20136;-66
2021/12/25 08:07:34;;;;;;;13.05;6.35;;;6.40;99.90;;;;;;5034910;28;20065;-63
2021/12/25 08:10:13;;;;;;;9.00;4.82;;;6.30;99.90;;;;;;5034584;28;20112;-63
2021/12/25 08:12:52;;;;;;;6.07;3.03;;;6.30;99.90;;;;;;5035644;28;20562;-64
2021/12/25 08:15:22;;;;;;;6.82;3.55;;;6.20;99.90;;;;;;5031104;28;20072;-64
2021/12/25 08:17:50;;;;;;;5.53;3.22;;;6.20;99.90;;;;;;5032472;28;20504;-65
2021/12/25 08:20:29;;;;;;;5.57;3.28;;;6.10;99.90;;;;;;5031962;28;20124;-64
2021/12/25 08:23:15;;;;;;;7.07;3.78;;;6.10;99.90;;;;;;5032534;28;20442;-65
2021/12/25 08:26:04;;;;;;;10.07;5.63;;;6.10;99.90;;;;;;5021653;28;20066;-65
2021/12/25 08:28:50;;;;;;;6.80;3.50;;;6.10;99.90;;;;;;5022081;28;20044;-65
2021/12/25 08:31:56;;;;;;;5.32;3.10;;;6.10;99.90;;;;;;5027027;28;20045;-64
2021/12/25 08:34:43;;;;;;;4.97;2.40;;;6.00;99.90;;;;;;5028953;28;20041;-64
2021/12/25 08:37:15;;;;;;;4.28;2.47;;;5.90;99.90;;;;;;5013261;28;20054;-64
2021/12/25 08:39:43;;;;;;;4.03;2.47;;;5.90;99.90;;;;;;5029195;28;20068;-64
2021/12/25 08:42:10;;;;;;;4.97;2.30;;;5.90;99.90;;;;;;5046481;28;20092;-65
2021/12/25 08:44:52;;;;;;;8.45;4.65;;;5.90;99.90;;;;;;4998731;28;20050;-64
2021/12/25 08:47:23;;;;;;;5.47;2.70;;;5.80;99.90;;;;;;5017467;28;20046;-64
2021/12/25 08:49:50;;;;;;;5.55;2.53;;;5.80;99.90;;;;;;5012890;28;20144;-64
2021/12/25 08:52:21;;;;;;;4.05;2.08;;;5.80;99.90;;;;;;5029419;28;20515;-64
2021/12/25 08:54:49;;;;;;;3.85;2.08;;;5.80;99.90;;;;;;5012359;28;20056;-64
2021/12/25 08:57:19;;;;;;;3.63;1.40;;;5.70;99.90;;;;;;5030067;28;20057;-64
2021/12/25 08:59:47;;;;;;;4.95;1.80;;;5.70;99.90;;;;;;5030219;28;20049;-65
2021/12/25 09:02:16;;;;;;;3.33;1.60;;;5.60;99.90;;;;;;5024509;28;20054;-64
2021/12/25 09:04:46;;;;;;;3.85;1.95;;;5.60;99.90;;;;;;5018425;28;20042;-64
2021/12/25 09:07:13;;;;;;;4.03;2.30;;;5.60;99.90;;;;;;5017414;28;20409;-64
2021/12/25 09:09:41;;;;;;;3.05;1.60;;;5.50;99.90;;;;;;5015779;28;20540;-64
2021/12/25 09:12:13;;;;;;;3.95;1.80;;;5.60;99.90;;;;;;5028138;28;20196;-65
2021/12/25 09:14:41;;;;;;;3.97;2.08;;;5.60;99.90;;;;;;5012230;28;20137;-65
2021/12/25 09:17:09;;;;;;;3.20;1.77;;;5.50;99.90;;;;;;5029618;28;20601;-65
2021/12/25 09:19:37;;;;;;;7.50;3.00;;;5.50;99.90;;;;;;5025793;28;20051;-64
2021/12/25 09:22:07;;;;;;;8.40;3.20;;;5.50;99.90;;;;;;5028121;28;20037;-65
2021/12/25 09:24:35;;;;;;;6.35;2.95;;;5.50;99.90;;;;;;5025490;28;20069;-64
2021/12/25 09:27:04;;;;;;;5.20;1.83;;;5.50;99.90;;;;;;5025789;28;20057;-65
2021/12/25 09:29:33;;;;;;;3.15;1.67;;;5.50;99.90;;;;;;5026098;28;20396;-68
2021/12/25 09:32:00;;;;;;;4.35;1.55;;;5.40;99.90;;;;;;5028888;28;20076;-65
2021/12/25 09:34:28;;;;;;;3.35;1.60;;;5.50;99.90;;;;;;5030544;28;20548;-64
2021/12/25 09:36:55;;;;;;;2.67;1.40;;;5.50;99.90;;;;;;5030110;28;20408;-64
2021/12/25 09:39:23;;;;;;;7.47;4.22;;;5.60;99.90;;;;;;5025009;28;20045;-65
2021/12/25 09:41:51;;;;;;;12.98;6.72;;;5.70;99.90;;;;;;5040811;28;20049;-64
2021/12/25 09:44:18;;;;;;;4.45;2.50;;;5.60;99.90;;;;;;5028414;28;20037;-64
2021/12/25 09:46:47;;;;;;;4.47;1.65;;;5.70;99.90;;;;;;5030173;28;20088;-64
2021/12/25 09:49:14;;;;;;;3.92;1.77;;;5.60;99.90;;;;;;5030109;28;20165;-64
2021/12/25 09:51:42;;;;;;;4.95;2.40;;;5.60;99.90;;;;;;5028619;28;20088;-65
2021/12/25 09:54:12;;;;;;;3.90;2.00;;;5.50;99.90;;;;;;5030042;28;20052;-64
2021/12/25 09:56:41;;;;;;;4.63;2.17;;;5.50;99.90;;;;;;5030213;28;20049;-65
2021/12/25 09:59:13;;;;;;;3.25;1.45;;;5.40;99.90;;;;;;5030319;28;20053;-64
2021/12/25 10:01:44;;;;;;;115.88;37.50;;;5.40;99.90;;;;;;5017906;28;20034;-64
2021/12/25 10:04:29;;;;;;;13.85;4.82;;;5.30;99.90;;;;;;5027093;28;20048;-64
2021/12/25 10:06:57;;;;;;;12.65;6.40;;;5.30;99.90;;;;;;5028123;28;20048;-64
2021/12/25 10:09:26;;;;;;;12.90;7.30;;;5.20;99.90;;;;;;5028888;28;20049;-64
2021/12/25 10:11:58;;;;;;;5.32;1.95;;;5.20;99.90;;;;;;5028099;28;20489;-65
2021/12/25 10:14:27;;;;;;;3.58;2.00;;;5.20;99.90;;;;;;5026446;28;20045;-64
2021/12/25 10:16:55;;;;;;;3.75;1.60;;;5.10;99.90;;;;;;5028530;28;20130;-64
2021/12/25 10:19:31;;;;;;;3.10;1.50;;;5.10;99.90;;;;;;5029117;28;20041;-64
2021/12/25 10:22:06;;;;;;;4.03;1.30;;;5.10;99.90;;;;;;5028098;28;20121;-64
2021/12/25 10:24:49;;;;;;;2.20;1.35;;;5.10;99.90;;;;;;5029722;28;20433;-64
2021/12/25 10:27:22;;;;;;;2.22;1.20;;;5.10;99.90;;;;;;5061210;28;20456;-65
2021/12/25 10:29:59;;;;;;;2.55;1.50;;;5.10;99.90;;;;;;5021773;28;20571;-64
2021/12/25 10:32:26;;;;;;;1.98;1.20;;;5.00;99.90;;;;;;5026980;28;20037;-64
2021/12/25 10:34:54;;;;;;;2.40;1.10;;;5.00;99.90;;;;;;5027311;28;20034;-65
2021/12/25 10:37:23;;;;;;;4.28;1.70;;;5.00;99.90;;;;;;5027829;28;20091;-64
2021/12/25 10:39:51;;;;;;;2.75;1.30;;;5.00;99.90;;;;;;5028597;28;20496;-65
2021/12/25 10:42:21;;;;;;;2.88;1.50;;;5.00;99.90;;;;;;5060230;28;20065;-64
2021/12/25 10:44:51;;;;;;;3.85;1.42;;;4.90;99.90;;;;;;5028741;28;20060;-64
2021/12/25 10:47:20;;;;;;;3.17;1.30;;;4.90;99.90;;;;;;5027337;28;20080;-64
2021/12/25 10:49:57;;;;;;;2.50;1.40;;;4.90;99.90;;;;;;5027884;28;20202;-64
2021/12/25 10:52:39;;;;;;;3.80;1.65;;;4.90;99.90;;;;;;5021866;28;20857;-64
2021/12/25 10:55:19;;;;;;;3.38;1.95;;;4.90;99.90;;;;;;5027400;28;20045;-64
2021/12/25 10:57:52;;;;;;;3.75;1.73;;;4.90;99.90;;;;;;5029937;28;20057;-64
2021/12/25 11:00:19;;;;;;;4.72;1.83;;;4.90;99.90;;;;;;5027226;28;20049;-64
2021/12/25 11:02:57;;;;;;;3.45;1.70;;;4.90;99.90;;;;;;5028090;28;20115;-64
2021/12/25 11:05:28;;;;;;;3.88;1.63;;;5.00;99.90;;;;;;5027287;28;20069;-64
2021/12/25 11:08:17;;;;;;;6.72;3.30;;;4.90;99.90;;;;;;5026954;28;20496;-64
2021/12/25 11:11:01;;;;;;;2.45;1.50;;;4.90;99.90;;;;;;5024055;28;20044;-64
2021/12/25 11:13:41;;;;;;;2.67;1.20;;;4.80;99.90;;;;;;5027669;28;20286;-64
2021/12/25 11:16:12;;;;;;;2.75;1.40;;;4.70;99.90;;;;;;5025369;28;20053;-64
2021/12/25 11:19:11;;;;;;;3.40;1.70;;;4.70;99.90;;;;;;5028354;28;20050;-65
2021/12/25 11:21:45;;;;;;;2.45;1.40;;;4.70;99.90;;;;;;5026871;28;20042;-64
2021/12/25 11:24:19;;;;;;;2.22;1.30;;;4.70;99.90;;;;;;5022864;28;20038;-64
2021/12/25 11:26:49;;;;;;;2.08;1.35;;;4.70;99.90;;;;;;5025870;28;20052;-65
2021/12/25 11:29:20;;;;;;;3.70;1.60;;;4.50;99.90;;;;;;5026881;28;20266;-64
2021/12/25 11:31:49;;;;;;;3.92;2.03;;;4.50;99.90;;;;;;5032727;28;20042;-64
2021/12/25 11:34:20;;;;;;;3.63;1.55;;;4.40;99.90;;;;;;5028507;28;20049;-64
2021/12/25 11:36:50;;;;;;;2.83;1.50;;;4.30;99.90;;;;;;5027801;28;20037;-64
2021/12/25 11:39:20;;;;;;;4.88;2.13;;;4.30;99.90;;;;;;5027745;28;20059;-64
2021/12/25 11:41:50;;;;;;;2.38;1.30;;;4.30;99.90;;;;;;5024864;28;20049;-64
2021/12/25 11:44:42;;;;;;;2.72;1.35;;;4.40;99.90;;;;;;5058190;28;20500;-64
2021/12/25 11:47:38;;;;;;;6.80;1.50;;;4.40;99.90;;;;;;5027863;28;20046;-64
2021/12/25 11:50:14;;;;;;;3.72;1.75;;;4.40;99.90;;;;;;5025632;28;20064;-64
2021/12/25 11:52:53;;;;;;;4.25;2.00;;;4.40;99.90;;;;;;5029721;28;20054;-64
2021/12/25 11:55:36;;;;;;;3.70;1.83;;;4.40;99.90;;;;;;5030522;28;20515;-64
2021/12/25 11:58:19;;;;;;;;;;;4.40;99.90;;;;;;5042779;28;20041;-64
2021/12/25 12:00:51;;;;;;;4.10;1.92;;;4.50;99.90;;;;;;5028973;28;20664;-64
2021/12/25 12:03:56;;;;;;;4.13;1.80;;;4.50;99.90;;;;;;5021297;28;20053;-64
2021/12/25 12:06:48;;;;;;;3.90;1.98;;;4.50;99.90;;;;;;5047858;28;20740;-65
2021/12/25 12:09:51;;;;;;;2.92;1.65;;;4.50;99.90;;;;;;5026392;28;20427;-65
2021/12/25 12:12:41;;;;;;;2.85;1.60;;;4.50;99.90;;;;;;5033908;28;20041;-64
2021/12/25 12:15:25;;;;;;;4.50;1.60;;;4.50;99.90;;;;;;5041914;28;20471;-64
2021/12/25 12:18:35;;;;;;;3.72;1.85;;;4.50;99.90;;;;;;5040107;28;20496;-64
2021/12/25 12:21:18;;;;;;;3.30;2.05;;;4.50;99.90;;;;;;5029419;28;20057;-64
2021/12/25 12:24:21;;;;;;;2.85;1.50;;;4.50;99.90;;;;;;5030815;28;20578;-64
2021/12/25 12:26:48;;;;;;;3.70;1.80;;;4.40;99.90;;;;;;5037693;28;20053;-64
2021/12/25 12:29:38;;;;;;;2.92;1.60;;;4.50;99.90;;;;;;5012632;28;20505;-64
2021/12/25 12:32:07;;;;;;;3.47;1.80;;;4.60;99.90;;;;;;5030802;28;20647;-64
2021/12/25 12:34:37;;;;;;;2.63;1.55;;;4.70;99.90;;;;;;5031624;28;20057;-64
2021/12/25 12:37:14;;;;;;;2.50;1.42;;;4.80;99.90;;;;;;5036800;28;20052;-65
2021/12/25 12:39:58;;;;;;;3.30;1.83;;;4.80;99.90;;;;;;5034765;28;20049;-64
2021/12/25 12:42:55;;;;;;;4.55;1.67;;;4.80;99.90;;;;;;5029102;28;20042;-64
2021/12/25 12:45:25;;;;;;;3.22;1.55;;;4.80;99.90;;;;;;5016925;28;20054;-64
2021/12/25 12:48:14;;;;;;;4.30;2.10;;;4.70;99.90;;;;;;5030311;28;20049;-64
2021/12/25 12:50:47;;;;;;;2.95;1.70;;;4.70;99.90;;;;;;5030097;28;20057;-64
2021/12/25 12:53:15;;;;;;;3.08;1.48;;;4.60;99.90;;;;;;5029271;28;20061;-64
2021/12/25 12:55:46;;;;;;;3.33;1.75;;;4.50;99.90;;;;;;5026633;28;20061;-64
2021/12/25 12:58:16;;;;;;;2.75;1.70;;;4.50;99.90;;;;;;5033333;28;20048;-64
2021/12/25 13:00:57;;;;;;;2.45;1.50;;;4.50;99.90;;;;;;5028418;28;20052;-64
2021/12/25 13:03:27;;;;;;;8.57;3.78;;;4.40;99.90;;;;;;5030856;28;20057;-64
2021/12/25 13:06:11;;;;;;;7.32;3.22;;;4.40;99.90;;;;;;5027990;28;20145;-64
2021/12/25 13:08:40;;;;;;;3.72;2.00;;;4.40;99.90;;;;;;5027367;28;20125;-64
2021/12/25 13:11:42;;;;;;;4.20;2.25;;;4.40;99.90;;;;;;5030971;28;20042;-64
2021/12/25 13:14:05;;;;;;;3.50;1.80;;;4.40;99.90;;;;;;5030216;28;20049;-64
2021/12/25 13:16:43;;;;;;;3.58;1.92;;;4.40;99.90;;;;;;5016926;28;20590;-64
2021/12/25 13:19:11;;;;;;;2.65;1.52;;;4.40;99.90;;;;;;5029371;28;20524;-64
2021/12/25 13:21:39;;;;;;;4.05;2.00;;;4.40;99.90;;;;;;5027629;28;20496;-64
2021/12/25 13:24:14;;;;;;;2.95;1.80;;;4.40;99.90;;;;;;5027622;28;20056;-64
2021/12/25 13:26:48;;;;;;;3.53;1.92;;;4.40;99.90;;;;;;5023236;28;20034;-64
2021/12/25 13:29:22;;;;;;;4.85;1.95;;;4.30;99.90;;;;;;5028272;28;20401;-64
2021/12/25 13:31:50;;;;;;;3.10;1.65;;;4.30;99.90;;;;;;5022114;28;20042;-65
2021/12/25 13:34:21;;;;;;;2.75;1.70;;;4.30;99.90;;;;;;5028467;28;20041;-64
2021/12/25 13:36:51;;;;;;;3.95;2.05;;;4.20;99.90;;;;;;5027193;28;20501;-64
2021/12/25 13:39:26;;;;;;;3.97;1.80;;;4.10;99.90;;;;;;5027711;28;20049;-64
2021/12/25 13:41:56;;;;;;;3.78;1.92;;;4.10;99.90;;;;;;5028259;28;20823;-65
2021/12/25 13:44:23;;;;;;;2.97;1.88;;;4.00;99.90;;;;;;5023549;28;20056;-65
2021/12/25 13:47:00;;;;;;;3.10;1.70;;;3.90;99.90;;;;;;5026481;28;20087;-64
2021/12/25 13:49:50;;;;;;;3.22;1.85;;;3.90;99.90;;;;;;5028523;28;20296;-64
2021/12/25 13:52:20;;;;;;;3.10;1.92;;;3.90;99.90;;;;;;5028192;28;20045;-65
2021/12/25 13:54:49;;;;;;;3.70;2.10;;;3.80;99.90;;;;;;5028540;28;20049;-64
2021/12/25 13:57:18;;;;;;;3.78;2.08;;;3.80;99.90;;;;;;5029384;28;20132;-64
2021/12/25 13:59:58;;;;;;;3.38;2.05;;;3.70;99.90;;;;;;5029878;28;20057;-64
2021/12/25 14:02:29;;;;;;;3.70;2.20;;;3.70;99.90;;;;;;5026107;28;20056;-65
2021/12/25 14:04:57;;;;;;;3.65;2.10;;;3.70;99.90;;;;;;5029760;28;20045;-64
2021/12/25 14:07:30;;;;;;;3.38;2.13;;;3.70;99.90;;;;;;5028377;28;20117;-64
2021/12/25 14:10:03;;;;;;;4.40;2.47;;;3.60;99.90;;;;;;5028879;28;20434;-64
2021/12/25 14:12:31;;;;;;;5.55;2.72;;;3.70;99.90;;;;;;5028638;28;20060;-64
2021/12/25 14:15:00;;;;;;;4.38;2.53;;;3.70;99.90;;;;;;5029445;28;20045;-64
2021/12/25 14:17:27;;;;;;;5.13;2.55;;;3.70;99.90;;;;;;5028509;28;20092;-64
2021/12/25 14:20:14;;;;;;;4.45;2.42;;;3.70;99.90;;;;;;5028550;28;20437;-64
2021/12/25 14:22:47;;;;;;;4.25;2.63;;;3.70;99.90;;;;;;5026773;28;20050;-64
2021/12/25 14:25:24;;;;;;;3.78;2.50;;;3.60;99.90;;;;;;5028342;28;20124;-64
2021/12/25 14:28:13;;;;;;;4.47;2.28;;;3.60;99.90;;;;;;5028408;28;20048;-64